createdAt,value
2018-11-23T00:00:20.817Z,93.07
2018-11-23T00:02:49.932Z,93.20
2018-11-23T00:05:18.179Z,92.89
2018-11-23T00:07:46.246Z,92.75
2018-11-23T00:10:15.725Z,92.34
2018-11-23T00:12:43.659Z,92.32
2018-11-23T00:15:12.473Z,92.12
2018-11-23T00:17:40.771Z,92.68
2018-11-23T00:20:11.301Z,92.79
2018-11-23T00:22:39.470Z,92.75
2018-11-23T00:25:08.657Z,92.82
2018-11-23T00:27:36.731Z,92.96
2018-11-23T00:30:05.775Z,93.03
2018-11-23T00:32:33.548Z,93.04
2018-11-23T00:35:01.921Z,93.23
2018-11-23T00:37:30.007Z,93.42
2018-11-23T00:39:58.486Z,93.43
2018-11-23T00:42:27.070Z,92.86
2018-11-23T00:44:55.508Z,91.91
2018-11-23T00:47:24.062Z,91.19
2018-11-23T00:49:52.425Z,90.88
2018-11-23T00:52:21.015Z,91.02
2018-11-23T00:54:48.744Z,91.28
2018-11-23T00:57:17.377Z,91.80
2018-11-23T00:59:45.864Z,92.05
2018-11-23T01:02:13.667Z,92.22
2018-11-23T01:04:41.380Z,92.39
2018-11-23T01:07:09.485Z,92.47
2018-11-23T01:09:37.663Z,92.65
2018-11-23T01:12:05.433Z,92.77
2018-11-23T01:14:33.206Z,93.00
2018-11-23T01:17:01.313Z,93.28
2018-11-23T01:19:29.757Z,93.60
2018-11-23T01:21:58.351Z,93.62
2018-11-23T01:24:26.851Z,93.05
2018-11-23T01:26:55.312Z,92.90
2018-11-23T01:29:23.554Z,92.95
2018-11-23T01:31:51.786Z,93.17
2018-11-23T01:34:19.589Z,93.16
2018-11-23T01:36:47.333Z,93.27
2018-11-23T01:39:15.810Z,93.30
2018-11-23T01:41:44.307Z,93.22
2018-11-23T01:44:12.891Z,93.19
2018-11-23T01:46:41.349Z,93.24
2018-11-23T01:49:09.784Z,93.44
2018-11-23T01:51:38.330Z,93.63
2018-11-23T01:54:06.436Z,93.88
2018-11-23T01:56:34.531Z,93.97
2018-11-23T01:59:02.587Z,94.00
2018-11-23T02:01:30.360Z,94.03
2018-11-23T02:03:58.019Z,93.91
2018-11-23T02:06:26.242Z,93.73
2018-11-23T02:08:54.761Z,93.66
2018-11-23T02:11:23.286Z,93.44
2018-11-23T02:13:51.351Z,93.13
2018-11-23T02:16:19.936Z,92.78
2018-11-23T02:18:48.423Z,92.88
2018-11-23T02:21:16.516Z,92.88
2018-11-23T02:23:44.113Z,92.62
2018-11-23T02:26:12.418Z,92.62
2018-11-23T02:28:40.436Z,92.98
2018-11-23T02:31:09.153Z,93.02
2018-11-23T02:33:39.043Z,92.89
2018-11-23T02:36:08.146Z,92.77
2018-11-23T02:38:35.819Z,92.69
2018-11-23T02:41:03.988Z,92.40
2018-11-23T02:43:32.505Z,92.31
2018-11-23T02:46:00.232Z,92.01
2018-11-23T02:48:28.138Z,91.88
2018-11-23T02:50:56.220Z,91.83
2018-11-23T02:53:23.860Z,91.88
2018-11-23T02:55:52.275Z,91.96
2018-11-23T02:58:20.746Z,92.03
2018-11-23T03:00:47.997Z,91.89
2018-11-23T03:03:16.395Z,91.85
2018-11-23T03:05:44.565Z,91.84
2018-11-23T03:08:12.637Z,91.92
2018-11-23T03:10:41.027Z,91.85
2018-11-23T03:13:09.202Z,92.00
2018-11-23T03:15:37.392Z,92.18
2018-11-23T03:18:06.178Z,92.09
2018-11-23T03:20:34.655Z,91.99
2018-11-23T03:23:02.845Z,92.65
2018-11-23T03:25:50.022Z,92.63
2018-11-23T03:28:17.727Z,92.15
2018-11-23T03:30:46.099Z,91.83
2018-11-23T03:33:13.770Z,91.31
2018-11-23T03:35:42.258Z,90.41
2018-11-23T03:38:10.226Z,90.69
2018-11-23T03:40:38.312Z,91.08
2018-11-23T03:43:06.393Z,91.43
2018-11-23T03:45:34.473Z,91.74
2018-11-23T03:48:02.923Z,92.00
2018-11-23T03:50:30.614Z,92.32
2018-11-23T03:52:59.115Z,92.58
2018-11-23T03:55:26.903Z,92.66
2018-11-23T03:57:55.227Z,92.56
2018-11-23T04:00:23.927Z,92.46
2018-11-23T04:02:52.753Z,92.48
2018-11-23T04:05:20.860Z,92.60
2018-11-23T04:07:48.502Z,92.53
2018-11-23T04:10:17.417Z,92.27
2018-11-23T04:12:45.458Z,92.00
2018-11-23T04:15:13.837Z,91.95
2018-11-23T04:17:41.832Z,92.06
2018-11-23T04:20:11.852Z,92.41
2018-11-23T04:22:40.437Z,92.12
2018-11-23T04:25:08.001Z,92.12
2018-11-23T04:27:36.491Z,92.33
2018-11-23T04:30:05.262Z,92.40
2018-11-23T04:32:33.794Z,92.46
2018-11-23T04:35:01.444Z,92.77
2018-11-23T04:37:29.451Z,92.47
2018-11-23T04:39:57.973Z,92.66
2018-11-23T04:42:26.078Z,92.87
2018-11-23T04:44:54.179Z,92.95
2018-11-23T04:47:22.659Z,93.07
2018-11-23T04:49:50.729Z,93.14
2018-11-23T04:52:18.510Z,93.32
2018-11-23T04:54:46.578Z,93.38
2018-11-23T04:57:14.782Z,93.34
2018-11-23T04:59:42.425Z,93.42
2018-11-23T05:02:10.115Z,93.67
2018-11-23T05:04:38.171Z,93.69
2018-11-23T05:07:06.664Z,93.73
2018-11-23T05:09:35.135Z,93.91
2018-11-23T05:12:03.734Z,93.97
2018-11-23T05:14:31.796Z,94.22
2018-11-23T05:16:59.991Z,93.88
2018-11-23T05:19:32.807Z,93.59
2018-11-23T05:21:56.213Z,93.59
2018-11-23T05:24:24.450Z,92.95
2018-11-23T05:26:53.008Z,92.63
2018-11-23T05:29:20.811Z,92.87
2018-11-23T05:31:48.830Z,93.00
2018-11-23T05:34:16.934Z,93.25
2018-11-23T05:36:45.396Z,93.66
2018-11-23T05:39:13.238Z,94.33
2018-11-23T05:41:41.389Z,94.54
2018-11-23T05:44:09.552Z,94.77
2018-11-23T05:46:38.036Z,95.13
2018-11-23T05:49:06.203Z,95.62
2018-11-23T05:51:34.704Z,96.02
2018-11-23T05:54:02.688Z,96.18
2018-11-23T05:56:30.435Z,96.54
2018-11-23T05:58:58.944Z,96.61
2018-11-23T06:01:27.008Z,96.41
2018-11-23T06:03:55.504Z,96.26
2018-11-23T06:06:23.673Z,96.17
2018-11-23T06:08:52.068Z,95.90
2018-11-23T06:11:20.180Z,96.01
2018-11-23T06:13:48.635Z,96.00
2018-11-23T06:16:17.104Z,95.81
2018-11-23T06:18:45.217Z,95.90
2018-11-23T06:21:13.376Z,95.95
2018-11-23T06:23:41.552Z,96.05
2018-11-23T06:26:29.283Z,96.15
2018-11-23T06:28:56.938Z,96.24
2018-11-23T06:31:24.606Z,96.14
2018-11-23T06:33:53.061Z,96.14
2018-11-23T06:36:21.626Z,96.06
2018-11-23T06:38:49.973Z,95.72
2018-11-23T06:41:18.141Z,95.35
2018-11-23T06:43:46.128Z,95.33
2018-11-23T06:46:14.215Z,95.46
2018-11-23T06:48:42.288Z,95.56
2018-11-23T06:51:10.467Z,95.62
2018-11-23T06:53:38.644Z,95.83
2018-11-23T06:56:07.234Z,95.82
2018-11-23T06:58:35.309Z,95.91
2018-11-23T07:01:03.896Z,95.94
2018-11-23T07:03:32.486Z,95.23
2018-11-23T07:06:00.999Z,94.50
2018-11-23T07:08:29.196Z,94.31
2018-11-23T07:11:16.499Z,94.67
2018-11-23T07:13:44.263Z,95.09
2018-11-23T07:16:12.417Z,95.43
2018-11-23T07:18:40.938Z,95.38
2018-11-23T07:21:08.963Z,95.31
2018-11-23T07:23:37.052Z,95.07
2018-11-23T07:26:05.329Z,94.62
2018-11-23T07:28:33.503Z,94.37
2018-11-23T07:31:02.528Z,94.29
2018-11-23T07:33:29.426Z,94.59
2018-11-23T07:35:56.357Z,94.55
2018-11-23T07:38:25.018Z,94.67
2018-11-23T07:41:31.665Z,94.96
2018-11-23T07:44:00.135Z,95.05
2018-11-23T07:46:27.979Z,95.16
2018-11-23T07:48:56.562Z,95.05
2018-11-23T07:51:24.287Z,94.71
2018-11-23T07:53:52.761Z,94.66
2018-11-23T07:56:20.844Z,94.63
2018-11-23T07:59:08.320Z,94.56
2018-11-23T08:01:36.438Z,93.97
2018-11-23T08:04:04.540Z,93.14
2018-11-23T08:06:32.303Z,93.10
2018-11-23T08:09:00.888Z,93.45
2018-11-23T08:11:28.962Z,94.02
2018-11-23T08:13:57.061Z,94.13
2018-11-23T08:16:25.132Z,93.94
2018-11-23T08:18:53.202Z,93.97
2018-11-23T08:21:21.426Z,94.32
2018-11-23T08:23:49.566Z,94.32
2018-11-23T08:26:18.132Z,94.33
2018-11-23T08:28:48.697Z,94.28
2018-11-23T08:31:16.846Z,94.18
2018-11-23T08:33:45.340Z,94.19
2018-11-23T08:36:13.113Z,94.19
2018-11-23T08:38:41.193Z,94.07
2018-11-23T08:41:09.262Z,94.19
2018-11-23T08:43:37.051Z,94.23
2018-11-23T08:46:05.533Z,93.70
2018-11-23T08:48:34.020Z,93.56
2018-11-23T08:51:02.196Z,93.61
2018-11-23T08:53:34.253Z,93.77
2018-11-23T08:56:02.564Z,94.00
2018-11-23T08:58:30.646Z,94.16
2018-11-23T09:00:58.787Z,94.36
2018-11-23T09:03:26.877Z,94.57
2018-11-23T09:05:54.612Z,94.70
2018-11-23T09:08:23.354Z,94.15
2018-11-23T09:10:50.753Z,93.73
2018-11-23T09:13:18.474Z,92.32
2018-11-23T09:15:46.137Z,90.69
2018-11-23T09:18:13.796Z,89.85
2018-11-23T09:20:41.473Z,90.17
2018-11-23T09:23:09.655Z,90.87
2018-11-23T09:25:38.182Z,91.78
2018-11-23T09:28:06.318Z,91.91
2018-11-23T09:30:34.797Z,91.66
2018-11-23T09:33:02.459Z,91.75
2018-11-23T09:35:31.053Z,90.90
2018-11-23T09:37:59.522Z,90.94
2018-11-23T09:40:28.273Z,90.59
2018-11-23T09:42:56.646Z,89.89
2018-11-23T09:45:33.663Z,89.90
2018-11-23T09:48:03.413Z,89.64
2018-11-23T09:50:31.499Z,89.97
2018-11-23T09:53:01.046Z,90.16
2018-11-23T09:55:30.108Z,90.37
2018-11-23T09:57:58.613Z,90.42
2018-11-23T10:00:28.568Z,89.89
2018-11-23T10:02:57.859Z,89.35
2018-11-23T10:05:26.434Z,88.77
2018-11-23T10:07:58.818Z,87.12
2018-11-23T10:10:27.207Z,86.67
2018-11-23T10:12:55.680Z,86.65
2018-11-23T10:15:24.441Z,86.13
2018-11-23T10:17:52.892Z,85.37
2018-11-23T10:20:24.524Z,84.73
2018-11-23T10:22:52.882Z,84.22
2018-11-23T10:25:22.628Z,84.63
2018-11-23T10:27:51.190Z,84.58
2018-11-23T10:30:38.722Z,84.87
2018-11-23T10:33:07.589Z,85.24
2018-11-23T10:35:35.783Z,84.79
2018-11-23T10:38:04.469Z,84.91
2018-11-23T10:40:34.600Z,85.39
2018-11-23T10:43:02.677Z,85.19
2018-11-23T10:45:31.982Z,84.02
2018-11-23T10:48:00.876Z,83.77
2018-11-23T10:50:30.363Z,83.68
2018-11-23T10:52:58.972Z,83.73
2018-11-23T10:55:30.740Z,83.50
2018-11-23T10:57:58.971Z,84.07
2018-11-23T11:00:45.702Z,83.88
2018-11-23T11:03:32.885Z,83.64
2018-11-23T11:06:21.737Z,83.84
2018-11-23T11:08:49.705Z,84.06
2018-11-23T11:11:17.392Z,84.20
2018-11-23T11:13:45.956Z,84.20
2018-11-23T11:16:14.622Z,84.55
2018-11-23T11:18:42.778Z,84.79
2018-11-23T11:21:10.829Z,84.22
2018-11-23T11:23:39.446Z,84.42
2018-11-23T11:26:07.963Z,83.64
2018-11-23T11:28:36.639Z,83.32
2018-11-23T11:31:05.015Z,82.58
2018-11-23T11:33:33.193Z,81.29
2018-11-23T11:36:01.259Z,80.97
2018-11-23T11:38:29.141Z,80.50
2018-11-23T11:40:57.236Z,80.29
2018-11-23T11:43:25.427Z,80.00
2018-11-23T11:45:53.071Z,79.68
2018-11-23T11:48:20.836Z,79.87
2018-11-23T11:50:49.002Z,79.12
2018-11-23T11:53:17.199Z,78.36
2018-11-23T11:55:45.793Z,78.27
2018-11-23T11:58:13.462Z,77.27
2018-11-23T12:00:41.119Z,76.68
2018-11-23T12:03:09.601Z,76.92
2018-11-23T12:05:37.269Z,77.14
2018-11-23T12:08:05.469Z,77.37
2018-11-23T12:10:33.558Z,76.94
2018-11-23T12:13:01.776Z,77.17
2018-11-23T12:15:29.889Z,76.58
2018-11-23T12:17:57.911Z,77.37
2018-11-23T12:20:25.838Z,77.84
2018-11-23T12:22:54.333Z,78.66
2018-11-23T12:25:22.978Z,78.57
2018-11-23T12:27:50.951Z,78.68
2018-11-23T12:30:20.463Z,78.96
2018-11-23T12:32:49.798Z,79.09
2018-11-23T12:35:18.802Z,78.82
2018-11-23T12:37:47.036Z,79.53
2018-11-23T12:40:16.185Z,79.84
2018-11-23T12:42:44.742Z,80.93
2018-11-23T12:45:13.935Z,81.83
2018-11-23T12:47:42.462Z,82.19
2018-11-23T12:50:29.980Z,82.57
2018-11-23T12:53:05.809Z,82.88
2018-11-23T12:55:26.059Z,83.18
2018-11-23T12:57:54.469Z,83.31
2018-11-23T13:00:42.097Z,83.37
2018-11-23T13:03:10.212Z,83.72
2018-11-23T13:05:38.258Z,84.05
2018-11-23T13:08:06.639Z,84.37
2018-11-23T13:10:34.875Z,84.67
2018-11-23T13:13:03.506Z,85.04
2018-11-23T13:15:31.953Z,85.14
2018-11-23T13:18:00.665Z,85.43
2018-11-23T13:20:28.405Z,85.81
2018-11-23T13:22:56.469Z,86.19
2018-11-23T13:25:28.670Z,86.63
2018-11-23T13:27:57.239Z,86.98
2018-11-23T13:30:26.962Z,87.11
2018-11-23T13:32:55.351Z,87.04
2018-11-23T13:35:23.108Z,86.64
2018-11-23T13:37:51.316Z,86.37
2018-11-23T13:40:20.973Z,86.42
2018-11-23T13:42:48.754Z,86.34
2018-11-23T13:45:17.518Z,86.04
2018-11-23T13:47:45.760Z,85.47
2018-11-23T13:50:15.264Z,84.53
2018-11-23T13:52:44.937Z,84.85
2018-11-23T13:55:14.063Z,85.18
2018-11-23T13:57:42.574Z,85.78
2018-11-23T14:00:15.838Z,86.43
2018-11-23T14:02:44.786Z,86.57
2018-11-23T14:05:14.712Z,86.53
2018-11-23T14:07:44.050Z,86.53
2018-11-23T14:10:13.461Z,84.79
2018-11-23T14:12:41.561Z,84.27
2018-11-23T14:15:13.160Z,84.38
2018-11-23T14:17:41.505Z,84.32
2018-11-23T14:20:11.280Z,82.60
2018-11-23T14:22:39.171Z,79.47
2018-11-23T14:25:07.592Z,79.80
2018-11-23T14:27:35.343Z,77.94
2018-11-23T14:30:04.045Z,78.00
2018-11-23T14:32:32.234Z,78.58
2018-11-23T14:35:00.454Z,77.57
2018-11-23T14:37:28.509Z,76.95
2018-11-23T14:39:56.668Z,76.04
2018-11-23T14:42:23.649Z,76.00
2018-11-23T14:44:51.920Z,75.95
2018-11-23T14:47:20.059Z,76.25
2018-11-23T14:49:48.586Z,77.46
2018-11-23T14:52:16.449Z,77.50
2018-11-23T14:54:44.259Z,77.71
2018-11-23T14:57:12.119Z,78.85
2018-11-23T14:59:40.511Z,80.35
2018-11-23T15:02:08.244Z,80.70
2018-11-23T15:04:36.431Z,81.69
2018-11-23T15:07:05.104Z,82.41
2018-11-23T15:09:33.284Z,82.95
2018-11-23T15:12:00.631Z,83.32
2018-11-23T15:14:29.134Z,82.96
2018-11-23T15:16:56.411Z,82.70
2018-11-23T15:19:24.642Z,82.80
2018-11-23T15:21:53.164Z,83.46
2018-11-23T15:24:21.329Z,83.57
2018-11-23T15:26:48.729Z,83.60
2018-11-23T15:29:16.456Z,84.22
2018-11-23T15:31:44.769Z,84.41
2018-11-23T15:34:13.875Z,84.30
2018-11-23T15:36:41.780Z,84.83
2018-11-23T15:39:11.030Z,84.87
2018-11-23T15:41:39.755Z,84.31
2018-11-23T15:44:07.777Z,84.15
2018-11-23T15:46:35.459Z,84.08
2018-11-23T15:49:03.584Z,84.77
2018-11-23T15:51:31.724Z,85.39
2018-11-23T15:53:59.520Z,85.65
2018-11-23T15:56:27.361Z,84.80
2018-11-23T15:58:55.449Z,85.14
2018-11-23T16:01:23.934Z,85.16
2018-11-23T16:03:52.230Z,85.57
2018-11-23T16:06:20.368Z,86.16
2018-11-23T16:08:48.854Z,86.50
2018-11-23T16:11:17.368Z,86.29
2018-11-23T16:13:45.848Z,85.99
2018-11-23T16:16:13.509Z,85.66
2018-11-23T16:18:41.584Z,86.19
2018-11-23T16:21:09.688Z,85.99
2018-11-23T16:23:38.178Z,86.58
2018-11-23T16:26:06.248Z,86.89
2018-11-23T16:28:34.728Z,87.01
2018-11-23T16:31:02.894Z,87.00
2018-11-23T16:33:30.720Z,86.72
2018-11-23T16:35:59.778Z,86.48
2018-11-23T16:38:27.435Z,86.58
2018-11-23T16:40:56.283Z,86.41
2018-11-23T16:43:24.362Z,86.04
2018-11-23T16:45:52.924Z,85.81
2018-11-23T16:48:21.983Z,86.33
2018-11-23T16:50:50.814Z,86.26
2018-11-23T16:53:19.398Z,86.30
2018-11-23T16:55:47.980Z,86.64
2018-11-23T16:58:16.576Z,86.79
2018-11-23T17:00:46.090Z,87.09
2018-11-23T17:03:15.699Z,86.84
2018-11-23T17:05:45.705Z,86.54
2018-11-23T17:08:14.099Z,86.04
2018-11-23T17:10:42.284Z,84.92
2018-11-23T17:13:09.979Z,84.79
2018-11-23T17:15:37.801Z,85.21
2018-11-23T17:18:06.206Z,85.54
2018-11-23T17:20:34.794Z,85.43
2018-11-23T17:23:04.223Z,85.64
2018-11-23T17:25:33.026Z,86.60
2018-11-23T17:28:02.307Z,87.25
2018-11-23T17:30:31.193Z,87.34
2018-11-23T17:32:59.659Z,87.53
2018-11-23T17:35:28.255Z,87.68
2018-11-23T17:37:56.266Z,87.34
2018-11-23T17:40:25.619Z,87.55
2018-11-23T17:42:53.215Z,87.40
2018-11-23T17:45:40.754Z,87.11
2018-11-23T17:48:09.085Z,87.28
2018-11-23T17:50:38.105Z,87.65
2018-11-23T17:53:06.201Z,87.39
2018-11-23T17:55:34.775Z,86.92
2018-11-23T17:58:02.959Z,87.11
2018-11-23T18:00:38.935Z,86.79
2018-11-23T18:03:02.245Z,86.64
2018-11-23T18:05:31.101Z,86.81
2018-11-23T18:07:59.952Z,86.77
2018-11-23T18:10:29.322Z,86.98
2018-11-23T18:12:58.544Z,86.53
2018-11-23T18:15:45.774Z,86.32
2018-11-23T18:18:33.329Z,86.39
2018-11-23T18:21:01.099Z,86.47
2018-11-23T18:23:29.604Z,86.47
2018-11-23T18:25:58.235Z,86.66
2018-11-23T18:28:26.257Z,86.48
2018-11-23T18:30:53.911Z,86.05
2018-11-23T18:33:22.001Z,85.96
2018-11-23T18:35:50.210Z,85.79
2018-11-23T18:38:18.680Z,86.05
2018-11-23T18:40:47.225Z,86.24
2018-11-23T18:43:15.339Z,86.39
2018-11-23T18:45:43.014Z,86.33
2018-11-23T18:48:10.892Z,86.21
2018-11-23T18:50:39.139Z,86.25
2018-11-23T18:53:07.240Z,85.77
2018-11-23T18:55:35.716Z,86.60
2018-11-23T18:58:04.217Z,87.90
2018-11-23T19:00:32.679Z,88.22
2018-11-23T19:03:00.462Z,88.22
2018-11-23T19:05:28.760Z,88.42
2018-11-23T19:07:56.690Z,89.07
2018-11-23T19:10:25.196Z,88.88
2018-11-23T19:12:52.872Z,89.28
2018-11-23T19:15:25.651Z,89.75
2018-11-23T19:17:49.480Z,88.96
2018-11-23T19:20:18.962Z,88.28
2018-11-23T19:22:48.241Z,88.13
2018-11-23T19:25:15.923Z,87.91
2018-11-23T19:27:44.452Z,88.02
2018-11-23T19:30:15.799Z,88.22
2018-11-23T19:32:44.174Z,88.83
2018-11-23T19:35:12.849Z,89.04
2018-11-23T19:40:08.411Z,88.28
2018-11-23T19:42:35.887Z,89.19
2018-11-23T19:45:03.448Z,89.20
2018-11-23T19:47:30.946Z,89.47
2018-11-23T19:49:58.395Z,90.78
2018-11-23T19:52:25.899Z,91.41
2018-11-23T19:54:53.390Z,90.31
2018-11-23T19:57:20.893Z,90.34
2018-11-23T19:59:48.376Z,90.19
2018-11-23T20:02:16.078Z,89.43
2018-11-23T20:04:43.559Z,90.18
2018-11-23T20:07:11.069Z,91.27
2018-11-23T20:09:40.024Z,90.53
2018-11-23T20:12:06.069Z,91.12
2018-11-23T20:14:33.958Z,90.86
2018-11-23T20:17:01.712Z,91.94
2018-11-23T20:19:29.465Z,90.90
2018-11-23T20:21:56.949Z,91.12
2018-11-23T20:24:25.170Z,90.85
2018-11-23T20:26:52.940Z,90.85
2018-11-23T20:29:20.972Z,89.69
2018-11-23T20:31:48.675Z,89.84
2018-11-23T20:34:26.046Z,89.12
2018-11-23T20:36:53.869Z,89.43
2018-11-23T20:39:21.919Z,88.99
2018-11-23T20:41:49.999Z,88.91
2018-11-23T20:44:17.680Z,89.23
2018-11-23T20:46:51.944Z,88.20
2018-11-23T20:49:19.620Z,88.35
2018-11-23T20:51:47.582Z,88.17
2018-11-23T20:54:15.313Z,87.77
2018-11-23T20:56:42.845Z,88.53
2018-11-23T20:59:10.670Z,88.52
2018-11-23T21:01:38.721Z,88.96
2018-11-23T21:04:06.639Z,88.91
2018-11-23T21:06:34.919Z,89.17
2018-11-23T21:09:02.715Z,89.80
2018-11-23T21:11:30.513Z,90.69
2018-11-23T21:13:57.975Z,90.71
2018-11-23T21:16:25.634Z,90.95
2018-11-23T21:18:53.039Z,90.27
2018-11-23T21:21:20.424Z,90.89
2018-11-23T21:23:48.193Z,90.91
2018-11-23T21:26:15.959Z,90.07
2018-11-23T21:28:43.424Z,90.12
2018-11-23T21:31:10.858Z,89.73
2018-11-23T21:33:38.353Z,90.18
2018-11-23T21:36:05.910Z,90.09
2018-11-23T21:38:33.369Z,90.62
2018-11-23T21:41:00.953Z,91.94
2018-11-23T21:43:28.395Z,91.18
2018-11-23T21:45:55.908Z,91.81
2018-11-23T21:48:23.548Z,92.07
2018-11-23T21:50:50.985Z,92.05
2018-11-23T21:53:18.421Z,91.67
2018-11-23T21:55:45.829Z,91.87
2018-11-23T21:58:13.298Z,92.10
2018-11-23T22:00:40.790Z,92.48
2018-11-23T22:03:08.278Z,92.91
2018-11-23T22:05:35.728Z,92.03
2018-11-23T22:08:03.185Z,92.74
2018-11-23T22:10:30.662Z,91.92
2018-11-23T22:12:58.170Z,92.24
2018-11-23T22:15:25.628Z,93.29
2018-11-23T22:17:54.337Z,92.12
2018-11-23T22:20:22.301Z,92.28
2018-11-23T22:22:49.707Z,92.30
2018-11-23T22:25:18.356Z,92.07
2018-11-23T22:27:45.880Z,92.48
2018-11-23T22:30:21.526Z,92.45
2018-11-23T22:32:49.014Z,91.92
2018-11-23T22:35:16.428Z,91.77
2018-11-23T22:37:43.912Z,90.33
2018-11-23T22:40:13.513Z,91.17
2018-11-23T22:42:42.124Z,92.30
2018-11-23T22:45:10.908Z,92.48
2018-11-23T22:47:38.329Z,91.28
2018-11-23T22:50:15.915Z,92.34
2018-11-23T22:52:43.374Z,91.83
2018-11-23T22:55:11.851Z,93.17
2018-11-23T22:57:39.338Z,92.37
2018-11-23T23:00:30.359Z,91.63
2018-11-23T23:02:57.864Z,91.97
2018-11-23T23:05:25.302Z,92.23
2018-11-23T23:07:52.713Z,91.41
2018-11-23T23:10:20.155Z,91.82
2018-11-23T23:12:47.734Z,92.36
2018-11-23T23:15:15.334Z,91.13
2018-11-23T23:17:42.816Z,91.69
2018-11-23T23:20:15.280Z,91.26
2018-11-23T23:22:42.740Z,92.45
2018-11-23T23:25:11.045Z,92.49
2018-11-23T23:27:38.519Z,92.32
2018-11-23T23:30:09.049Z,93.45
2018-11-23T23:32:36.836Z,92.72
2018-11-23T23:35:05.416Z,93.15
2018-11-23T23:37:32.833Z,93.71
2018-11-23T23:40:00.235Z,93.22
2018-11-23T23:42:27.673Z,94.37
2018-11-23T23:44:55.083Z,93.89
2018-11-23T23:47:22.506Z,94.18
2018-11-23T23:49:49.960Z,93.79
2018-11-23T23:52:17.343Z,93.13
2018-11-23T23:54:44.765Z,94.37
2018-11-23T23:57:12.200Z,93.69
2018-11-23T23:59:39.645Z,93.75
